Time;durP1;ratioP1;P1;durP2;ratioP2;P2;SDS_P1;SDS_P2;PMS_P1;PMS_P2;Temp;Humidity;BMP_temperature;BMP_pressure;BME280_temperature;BME280_humidity;BME280_pressure;Samples;Min_cycle;Max_cycle;Signal;HPM_P1;HPM_P2
2021/01/09 00:00:00;;;;;;;0.82;0.82;;;;;;;5.55;72.02;93451.16;5008645;28;20740;-80
2021/01/09 00:02:28;;;;;;;1.00;1.00;;;;;;;5.50;72.71;93438.84;4982415;28;20206;-81
2021/01/09 00:04:58;;;;;;;0.80;0.80;;;;;;;5.68;72.74;93454.00;4993596;28;20503;-80
2021/01/09 00:07:26;;;;;;;0.80;0.80;;;;;;;5.71;71.52;93444.03;4973275;28;20054;-80
2021/01/09 00:10:01;;;;;;;0.88;0.82;;;;;;;5.75;71.07;93447.69;4990175;28;20057;-81
2021/01/09 00:12:27;;;;;;;0.80;0.80;;;;;;;5.63;70.73;93443.53;5008704;28;20038;-80
2021/01/09 00:14:53;;;;;;;1.05;0.80;;;;;;;5.84;70.29;93474.94;5005311;28;20041;-81
2021/01/09 00:17:28;;;;;;;2.30;0.90;;;;;;;5.72;70.17;93456.09;4982154;28;20544;-79
2021/01/09 00:20:10;;;;;;;0.80;0.80;;;;;;;5.84;70.30;93469.69;4988507;28;20021;-79
2021/01/09 00:22:47;;;;;;;0.80;0.80;;;;;;;5.70;69.80;93455.56;5007407;28;20041;-79
2021/01/09 00:25:16;;;;;;;0.80;0.80;;;;;;;5.62;69.60;93434.09;4893937;28;20121;-79
2021/01/09 00:27:55;;;;;;;0.80;0.80;;;;;;;5.52;69.66;93435.97;5004590;28;20042;-79
2021/01/09 00:30:38;;;;;;;0.80;0.80;;;;;;;5.79;70.09;93467.88;4936248;28;20614;-80
2021/01/09 00:33:04;;;;;;;0.80;0.80;;;;;;;5.85;69.78;93463.41;4975827;28;20099;-81
2021/01/09 00:35:30;;;;;;;0.88;0.80;;;;;;;5.77;69.67;93469.16;4990523;28;20092;-80
2021/01/09 00:38:04;;;;;;;0.88;0.88;;;;;;;5.82;69.58;93474.41;5005448;28;20108;-80
2021/01/09 00:40:29;;;;;;;0.70;0.70;;;;;;;5.75;69.82;93482.56;4982095;28;20398;-79
2021/01/09 00:42:55;;;;;;;0.70;0.70;;;;;;;5.68;70.06;93477.59;5000531;28;20042;-78
2021/01/09 00:45:20;;;;;;;0.80;0.80;;;;;;;5.75;70.65;93472.09;4997355;28;20042;-80
2021/01/09 00:47:46;;;;;;;0.70;0.70;;;;;;;5.82;70.08;93469.16;4973510;28;20041;-81
2021/01/09 00:50:12;;;;;;;0.70;0.70;;;;;;;5.75;69.59;93442.44;4990371;28;20025;-81
2021/01/09 00:52:37;;;;;;;1.40;0.85;;;;;;;5.89;69.49;93470.50;5006923;28;20378;-81
2021/01/09 00:55:05;;;;;;;0.80;0.80;;;;;;;5.90;69.37;93466.03;5003285;28;20046;-81
2021/01/09 00:57:31;;;;;;;0.80;0.80;;;;;;;6.04;68.86;93480.16;4987487;28;20555;-81
2021/01/09 00:59:56;;;;;;;0.80;0.80;;;;;;;6.04;68.70;93488.03;4974136;28;20062;-81
2021/01/09 01:02:22;;;;;;;0.90;0.90;;;;;;;5.86;68.88;93491.19;4982916;28;20720;-80
2021/01/09 01:04:47;;;;;;;0.80;0.80;;;;;;;5.94;69.04;93491.47;5008199;28;20033;-80
2021/01/09 01:07:13;;;;;;;0.80;0.80;;;;;;;6.06;68.69;93491.94;5009011;28;20076;-80
2021/01/09 01:09:39;;;;;;;0.80;0.80;;;;;;;6.09;68.38;93501.13;4979910;28;20133;-81
2021/01/09 01:12:05;;;;;;;1.10;0.90;;;;;;;6.17;68.12;93492.69;4927280;28;20043;-81
2021/01/09 01:14:31;;;;;;;0.98;0.98;;;;;;;6.22;68.05;93490.03;4957410;28;20037;-81
2021/01/09 01:16:56;;;;;;;0.90;0.90;;;;;;;6.17;67.71;93479.56;5007979;28;20083;-81
2021/01/09 01:19:22;;;;;;;0.95;0.95;;;;;;;6.24;67.90;93479.28;4984123;28;20053;-81
2021/01/09 01:21:48;;;;;;;0.93;0.90;;;;;;;6.12;67.81;93476.97;4981994;28;20095;-81
2021/01/09 01:24:14;;;;;;;1.20;1.10;;;;;;;6.20;67.95;93475.63;4995465;28;20048;-81
2021/01/09 01:26:40;;;;;;;1.33;1.23;;;;;;;6.28;67.69;93477.69;5004162;28;20030;-81
2021/01/09 01:29:05;;;;;;;1.20;1.10;;;;;;;6.35;67.48;93486.06;5010907;28;20795;-81
2021/01/09 01:31:31;;;;;;;1.30;1.20;;;;;;;6.29;67.49;93482.69;4998141;28;20038;-80
2021/01/09 01:33:56;;;;;;;2.33;1.38;;;;;;;6.33;67.23;93481.09;5006526;28;20406;-81
2021/01/09 01:36:22;;;;;;;1.88;1.10;;;;;;;6.34;67.40;93485.28;4992557;28;20507;-81
2021/01/09 01:38:49;;;;;;;1.10;1.00;;;;;;;6.23;67.29;93460.13;5013042;28;20040;-81
2021/01/09 01:41:17;;;;;;;2.67;1.02;;;;;;;6.32;67.45;93476.09;4978273;28;20049;-81
2021/01/09 01:43:43;;;;;;;1.00;1.00;;;;;;;6.42;66.88;93476.84;5013768;28;20026;-81
2021/01/09 01:46:10;;;;;;;1.10;1.10;;;;;;;6.49;66.42;93477.34;5009913;28;20037;-81
2021/01/09 01:48:41;;;;;;;0.95;0.95;;;;;;;6.51;66.40;93475.22;4993215;28;20237;-81
2021/01/09 01:51:09;;;;;;;1.45;1.35;;;;;;;6.49;66.06;93482.59;4999071;28;20038;-81
2021/01/09 01:53:34;;;;;;;1.13;1.00;;;;;;;6.60;66.11;93490.41;5010500;28;20374;-80
2021/01/09 01:56:00;;;;;;;1.15;0.98;;;;;;;6.51;66.18;93477.84;4992699;28;20868;-81
2021/01/09 01:58:26;;;;;;;1.27;1.02;;;;;;;6.56;66.20;93476.22;5014089;28;20554;-80
2021/01/09 02:00:52;;;;;;;1.17;0.90;;;;;;;6.52;66.37;93482.03;4975508;28;20058;-81
2021/01/09 02:03:19;;;;;;;1.42;1.00;;;;;;;6.53;66.24;93478.38;5005865;28;20096;-82
2021/01/09 02:06:08;;;;;;;1.10;0.90;;;;;;;6.50;66.29;93489.38;5010770;28;20041;-82
2021/01/09 02:08:59;;;;;;;1.02;1.00;;;;;;;6.52;65.97;93492.53;5012123;28;20045;-80
2021/01/09 02:11:34;;;;;;;0.90;0.90;;;;;;;6.39;66.02;93487.09;5004515;28;20046;-80
2021/01/09 02:14:02;;;;;;;1.08;0.90;;;;;;;6.42;66.06;93487.34;5013692;28;20045;-82
2021/01/09 02:16:28;;;;;;;1.33;1.10;;;;;;;6.47;66.03;93486.53;4997514;28;20050;-82
2021/01/09 02:19:08;;;;;;;1.15;1.10;;;;;;;6.47;66.09;93476.81;5012864;28;20077;-81
2021/01/09 02:21:38;;;;;;;1.65;1.50;;;;;;;6.52;66.05;93491.75;5007066;28;20043;-81
2021/01/09 02:24:14;;;;;;;1.50;1.10;;;;;;;6.58;65.93;93474.91;5013962;28;20422;-82
2021/01/09 02:26:39;;;;;;;1.38;1.25;;;;;;;6.61;65.73;93484.09;5008756;28;20077;-81
2021/01/09 02:29:05;;;;;;;1.20;1.10;;;;;;;6.59;65.76;93491.47;5015681;28;20491;-82
2021/01/09 02:31:40;;;;;;;1.30;1.20;;;;;;;6.59;65.75;93496.72;5007854;28;20034;-80
2021/01/09 02:34:09;;;;;;;1.65;1.20;;;;;;;6.53;65.75;93488.88;5011307;28;20040;-83
2021/01/09 02:36:38;;;;;;;1.65;1.00;;;;;;;6.56;65.70;93481.47;5008030;28;24412;-81
2021/01/09 02:39:03;;;;;;;1.30;1.20;;;;;;;6.63;65.90;93481.97;5009268;28;20034;-82
2021/01/09 02:41:30;;;;;;;2.00;1.48;;;;;;;6.63;65.97;93477.53;4999746;28;20052;-82
2021/01/09 02:44:08;;;;;;;3.60;1.20;;;;;;;6.60;65.69;93490.41;5011898;28;20087;-81
2021/01/09 02:46:34;;;;;;;3.03;1.70;;;;;;;6.59;65.92;93483.59;5012298;28;20136;-82
2021/01/09 02:49:00;;;;;;;1.67;1.40;;;;;;;6.59;65.64;93479.13;5009313;28;20130;-83
2021/01/09 02:51:25;;;;;;;1.45;1.27;;;;;;;6.59;65.37;93476.50;5008743;28;20124;-80
2021/01/09 02:53:51;;;;;;;1.30;1.20;;;;;;;6.63;65.18;93487.25;5012536;28;20080;-81
2021/01/09 02:56:16;;;;;;;1.10;1.10;;;;;;;6.56;65.44;93479.66;5009560;28;20132;-82
2021/01/09 02:58:41;;;;;;;1.40;1.30;;;;;;;6.53;65.40;93493.31;5011919;28;20544;-82
2021/01/09 03:01:07;;;;;;;1.20;1.10;;;;;;;6.51;65.20;93495.44;5010009;28;20510;-82
2021/01/09 03:03:35;;;;;;;1.50;1.08;;;;;;;6.38;65.54;93496.81;5008183;28;20037;-82
2021/01/09 03:06:03;;;;;;;3.45;1.10;;;;;;;6.41;65.55;93485.75;5011245;28;20044;-82
2021/01/09 03:08:29;;;;;;;1.20;1.10;;;;;;;6.45;65.51;93489.41;5009055;28;20045;-81
2021/01/09 03:10:55;;;;;;;1.30;1.20;;;;;;;6.39;65.77;93497.59;5014727;28;20181;-79
2021/01/09 03:13:20;;;;;;;1.20;1.10;;;;;;;6.38;65.81;93494.19;4998469;28;20072;-82
2021/01/09 03:15:45;;;;;;;1.20;1.10;;;;;;;6.32;65.64;93495.25;5011599;28;20067;-82
2021/01/09 03:18:13;;;;;;;1.13;1.13;;;;;;;6.26;65.78;93496.31;5008048;28;20038;-81
2021/01/09 03:20:39;;;;;;;1.00;1.00;;;;;;;6.23;65.70;93489.00;5013186;28;20079;-81
2021/01/09 03:23:04;;;;;;;3.17;2.13;;;;;;;6.24;65.92;93495.81;5006829;28;20030;-82
2021/01/09 03:25:30;;;;;;;1.33;1.23;;;;;;;6.23;65.74;93496.88;5012112;28;20533;-79
2021/01/09 03:27:55;;;;;;;1.20;1.10;;;;;;;6.28;65.88;93494.22;4977193;28;20053;-79
2021/01/09 03:30:21;;;;;;;2.15;1.42;;;;;;;6.28;65.75;93494.22;5009858;28;20496;-82
2021/01/09 03:32:47;;;;;;;1.95;1.30;;;;;;;6.24;65.57;93490.56;4985502;28;20555;-82
2021/01/09 03:35:13;;;;;;;12.70;4.70;;;;;;;6.28;65.56;93488.19;4989785;28;20021;-81
2021/01/09 03:37:38;;;;;;;5.28;2.58;;;;;;;6.33;65.55;93498.66;4992411;28;20014;-82
2021/01/09 03:40:04;;;;;;;4.28;1.90;;;;;;;6.22;65.56;93497.91;5006856;28;20410;-82
2021/01/09 03:42:30;;;;;;;1.90;1.38;;;;;;;6.27;65.95;93499.72;4996954;28;20418;-81
2021/01/09 03:44:55;;;;;;;2.47;1.65;;;;;;;6.28;65.82;93507.34;5003081;28;20064;-81
2021/01/09 03:47:23;;;;;;;1.40;1.30;;;;;;;6.21;65.64;93516.53;4989787;28;20025;-82
2021/01/09 03:49:49;;;;;;;4.80;2.42;;;;;;;6.28;65.71;93523.09;5009700;28;20045;-79
2021/01/09 03:52:14;;;;;;;3.72;2.88;;;;;;;6.17;65.25;93521.53;5010063;28;20590;-82
2021/01/09 03:54:40;;;;;;;2.05;1.60;;;;;;;6.05;65.38;93521.06;5004710;28;20042;-82
2021/01/09 03:57:05;;;;;;;1.92;1.67;;;;;;;6.09;65.65;93525.53;5008651;28;20121;-82
2021/01/09 03:59:31;;;;;;;2.55;1.73;;;;;;;6.11;65.67;93525.22;5008127;28;20493;-81
2021/01/09 04:01:58;;;;;;;3.95;2.42;;;;;;;6.18;65.76;93528.38;5009573;28;20036;-81
2021/01/09 04:04:24;;;;;;;13.15;5.57;;;;;;;6.09;65.41;93527.34;5006061;28;20034;-82
2021/01/09 04:06:50;;;;;;;2.20;1.67;;;;;;;6.09;65.37;93541.25;5009887;28;20039;-81
2021/01/09 04:09:15;;;;;;;2.03;1.35;;;;;;;6.08;65.66;93533.66;5007966;28;20715;-82
2021/01/09 04:11:48;;;;;;;18.20;8.30;;;;;;;6.12;65.26;93544.38;5010265;28;20134;-81
2021/01/09 04:14:13;;;;;;;3.95;1.80;;;;;;;6.09;64.98;93548.34;5004460;28;20398;-82
2021/01/09 04:16:41;;;;;;;1.50;1.40;;;;;;;6.06;64.79;93556.72;5010613;28;20458;-81
2021/01/09 04:19:07;;;;;;;4.00;2.53;;;;;;;6.03;64.83;93552.03;4982158;28;20558;-82
2021/01/09 04:21:42;;;;;;;7.95;3.22;;;;;;;6.15;65.05;93549.91;4992077;28;20061;-82
2021/01/09 04:24:08;;;;;;;7.90;2.95;;;;;;;6.17;64.48;93558.28;5006169;28;20145;-82
2021/01/09 04:26:33;;;;;;;2.67;1.77;;;;;;;6.06;64.68;93551.47;5011913;28;20053;-82
2021/01/09 04:28:58;;;;;;;1.58;1.48;;;;;;;6.15;64.78;93564.84;5008749;28;20148;-81
2021/01/09 04:31:24;;;;;;;18.30;8.90;;;;;;;6.23;64.59;93562.47;5011980;28;20029;-81
2021/01/09 04:33:49;;;;;;;3.38;2.70;;;;;;;6.23;64.25;93566.91;5001192;28;20049;-81
2021/01/09 04:36:15;;;;;;;7.75;3.70;;;;;;;6.23;63.83;93562.47;5011655;28;20038;-82
2021/01/09 04:38:40;;;;;;;4.50;2.35;;;;;;;6.20;63.96;93563.00;4993446;28;20110;-81
2021/01/09 04:41:06;;;;;;;1.40;1.30;;;;;;;6.02;63.94;93566.97;4997029;28;20072;-82
2021/01/09 04:43:32;;;;;;;1.17;1.17;;;;;;;6.06;64.08;93572.47;5008326;28;20108;-82
2021/01/09 04:45:59;;;;;;;1.52;1.33;;;;;;;5.96;64.19;93577.75;5007609;28;20468;-82
2021/01/09 04:48:25;;;;;;;1.10;1.10;;;;;;;5.91;64.80;93572.50;5007938;28;20057;-82
2021/01/09 04:50:51;;;;;;;1.30;1.20;;;;;;;5.96;64.36;93578.50;5006419;28;20083;-81
2021/01/09 04:53:22;;;;;;;1.38;1.27;;;;;;;5.96;64.69;93577.75;5006833;28;20530;-82
2021/01/09 04:55:48;;;;;;;1.48;1.38;;;;;;;5.97;65.08;93589.78;5009989;28;20086;-81
2021/01/09 04:58:15;;;;;;;1.55;1.45;;;;;;;5.98;64.97;93580.88;4982291;28;20049;-81
2021/01/09 05:00:41;;;;;;;1.60;1.50;;;;;;;6.04;64.56;93588.50;5006756;28;20046;-81
2021/01/09 05:03:06;;;;;;;1.50;1.40;;;;;;;6.01;64.75;93577.75;5006008;28;20039;-79
2021/01/09 05:05:32;;;;;;;3.35;2.40;;;;;;;6.03;64.73;93594.00;5005259;28;20042;-81
2021/01/09 05:08:02;;;;;;;8.15;5.43;;;;;;;5.95;64.59;93595.31;4992006;28;20025;-81
2021/01/09 05:10:34;;;;;;;3.05;2.55;;;;;;;5.99;64.34;93587.72;5006374;28;20044;-82
2021/01/09 05:12:59;;;;;;;2.03;1.92;;;;;;;6.04;64.51;93600.81;4991777;28;20456;-81
2021/01/09 05:15:33;;;;;;;1.73;1.60;;;;;;;5.95;64.45;93603.19;5005843;28;20041;-82
2021/01/09 05:17:58;;;;;;;2.00;1.60;;;;;;;5.98;64.83;93618.38;5011717;28;20041;-82
2021/01/09 05:20:27;;;;;;;1.50;1.40;;;;;;;5.95;64.54;93613.69;5006106;28;20025;-78
2021/01/09 05:22:52;;;;;;;1.52;1.42;;;;;;;5.90;64.42;93602.41;5009671;28;20080;-82
2021/01/09 05:25:22;;;;;;;1.52;1.42;;;;;;;5.89;64.47;93613.94;4987724;28;20042;-81
2021/01/09 05:27:48;;;;;;;2.05;1.85;;;;;;;5.74;64.93;93621.78;5009966;28;20045;-81
2021/01/09 05:30:17;;;;;;;2.90;1.80;;;;;;;5.75;64.74;93618.13;5004613;28;20425;-81
2021/01/09 05:32:43;;;;;;;3.05;2.15;;;;;;;5.79;65.15;93619.16;4998635;28;20038;-81
2021/01/09 05:35:12;;;;;;;2.40;2.20;;;;;;;5.81;65.03;93623.09;5005407;28;20061;-81
2021/01/09 05:37:38;;;;;;;3.42;2.03;;;;;;;5.82;64.87;93634.34;4994303;28;20403;-81
2021/01/09 05:40:07;;;;;;;2.42;1.90;;;;;;;5.78;64.96;93633.31;5006698;28;20046;-81
2021/01/09 05:42:34;;;;;;;4.50;3.08;;;;;;;5.78;65.02;93634.09;5008976;28;20037;-81
2021/01/09 05:45:00;;;;;;;5.40;2.50;;;;;;;5.74;65.33;93643.53;5000932;28;20156;-81
2021/01/09 05:47:30;;;;;;;2.03;1.83;;;;;;;5.81;65.51;93651.16;4991126;28;20435;-81
2021/01/09 05:50:00;;;;;;;1.95;1.83;;;;;;;5.75;65.19;93650.38;5007649;28;20546;-80
2021/01/09 05:52:26;;;;;;;1.77;1.67;;;;;;;5.73;65.21;93649.84;4988353;28;20040;-81
2021/01/09 05:54:58;;;;;;;1.77;1.67;;;;;;;5.76;65.28;93662.44;5004931;28;20073;-81
2021/01/09 05:57:31;;;;;;;1.50;1.40;;;;;;;5.74;65.51;93666.34;5005618;28;20046;-81
2021/01/09 05:59:59;;;;;;;1.70;1.60;;;;;;;5.68;65.42;93648.00;4981155;28;20116;-81
2021/01/09 06:02:25;;;;;;;2.58;1.75;;;;;;;5.79;65.13;93666.34;5000679;28;20048;-79
2021/01/09 06:04:55;;;;;;;1.58;1.48;;;;;;;5.80;64.99;93657.44;5010210;28;20053;-79
2021/01/09 06:07:25;;;;;;;2.92;2.03;;;;;;;5.82;64.86;93655.34;4996150;28;20218;-81
2021/01/09 06:10:10;;;;;;;1.90;1.80;;;;;;;5.83;64.72;93651.66;5005525;28;20037;-79
2021/01/09 06:12:37;;;;;;;2.90;2.65;;;;;;;5.87;64.79;93655.38;4981206;28;20163;-80
2021/01/09 06:15:06;;;;;;;2.10;2.00;;;;;;;5.92;64.99;93655.38;4999423;28;20070;-79
2021/01/09 06:17:35;;;;;;;2.83;1.70;;;;;;;5.81;64.77;93654.56;5008132;28;20037;-80
2021/01/09 06:20:00;;;;;;;2.03;1.92;;;;;;;5.88;65.29;93660.34;5013350;28;20034;-79
2021/01/09 06:22:26;;;;;;;2.30;2.10;;;;;;;5.91;65.04;93665.06;4956300;28;20526;-80
2021/01/09 06:24:52;;;;;;;2.28;2.08;;;;;;;5.92;64.86;93663.22;5008586;28;20176;-81
2021/01/09 06:27:29;;;;;;;1.70;1.60;;;;;;;5.86;64.55;93667.69;5010553;28;20045;-80
2021/01/09 06:30:01;;;;;;;3.75;2.20;;;;;;;5.96;64.43;93680.03;4995867;28;20078;-80
2021/01/09 06:32:32;;;;;;;2.42;2.17;;;;;;;5.93;64.66;93693.66;5004019;28;20481;-80
2021/01/09 06:35:05;;;;;;;2.40;1.88;;;;;;;5.92;64.33;93686.84;5012065;28;20087;-80
2021/01/09 06:37:34;;;;;;;2.88;2.13;;;;;;;5.93;64.39;93702.31;4971621;28;20109;-80
2021/01/09 06:40:01;;;;;;;2.35;2.05;;;;;;;6.02;64.11;93713.06;5000197;28;20656;-80
2021/01/09 06:42:28;;;;;;;2.80;2.60;;;;;;;6.01;64.15;93719.38;5007178;28;20041;-80
2021/01/09 06:44:54;;;;;;;1.92;1.77;;;;;;;5.96;64.06;93708.91;4992365;28;20045;-79
2021/01/09 06:47:27;;;;;;;1.70;1.60;;;;;;;6.04;63.74;93724.91;4985387;28;20018;-80
2021/01/09 06:49:54;;;;;;;2.03;1.90;;;;;;;5.90;63.53;93708.09;5011570;28;20017;-80
2021/01/09 06:52:22;;;;;;;3.40;3.10;;;;;;;5.94;63.58;93722.25;4983057;28;20041;-80
2021/01/09 06:54:51;;;;;;;2.95;2.75;;;;;;;5.70;64.06;93723.78;5008152;28;20021;-81
2021/01/09 06:57:19;;;;;;;2.70;2.20;;;;;;;5.91;64.24;93758.72;5008848;28;20583;-80
2021/01/09 06:59:51;;;;;;;2.60;2.40;;;;;;;5.96;64.26;93750.84;5001059;28;20132;-80
2021/01/09 07:02:23;;;;;;;2.50;2.30;;;;;;;5.92;64.45;93755.03;5002544;28;20071;-80
2021/01/09 07:05:10;;;;;;;3.22;3.03;;;;;;;6.02;64.41;93765.53;4996151;28;20026;-80
2021/01/09 07:07:50;;;;;;;3.08;2.83;;;;;;;6.02;64.45;93765.53;5007507;28;20042;-80
2021/01/09 07:10:21;;;;;;;3.08;2.78;;;;;;;6.05;64.38;93776.31;5005600;28;20134;-80
2021/01/09 07:12:55;;;;;;;5.47;3.95;;;;;;;6.10;64.14;93778.16;5005219;28;20457;-82
2021/01/09 07:15:22;;;;;;;3.03;2.72;;;;;;;6.03;64.37;93782.84;4987163;28;20318;-80
2021/01/09 07:18:01;;;;;;;4.07;3.67;;;;;;;6.10;64.34;93786.03;4989101;28;20038;-80
2021/01/09 07:20:49;;;;;;;3.70;3.03;;;;;;;6.16;64.31;93792.84;4984887;28;20912;-80
2021/01/09 07:23:21;;;;;;;9.43;4.90;;;;;;;6.28;64.25;93798.63;4981291;28;20060;-81
2021/01/09 07:25:51;;;;;;;3.72;3.40;;;;;;;6.23;64.01;93800.47;4988363;28;20396;-80
2021/01/09 07:28:24;;;;;;;3.70;3.40;;;;;;;6.30;63.82;93803.63;5006127;28;20037;-79
2021/01/09 07:31:05;;;;;;;3.97;3.67;;;;;;;6.34;63.97;93797.59;4999193;28;20046;-78
2021/01/09 07:33:33;;;;;;;3.92;3.45;;;;;;;6.38;63.73;93817.00;4985978;28;20124;-81
2021/01/09 07:35:59;;;;;;;2.95;2.65;;;;;;;6.32;63.76;93822.50;4985362;28;20171;-80
2021/01/09 07:38:25;;;;;;;3.22;2.92;;;;;;;6.30;63.61;93814.91;4969857;28;20396;-81
2021/01/09 07:40:51;;;;;;;3.28;3.08;;;;;;;6.27;63.69;93836.41;4992646;28;20038;-80
2021/01/09 07:43:44;;;;;;;3.35;3.03;;;;;;;6.27;63.83;93819.88;4994277;28;20148;-81
2021/01/09 07:46:29;;;;;;;4.40;3.00;;;;;;;6.35;63.75;93832.50;4998530;28;20137;-79
2021/01/09 07:48:57;;;;;;;3.40;3.10;;;;;;;6.35;63.60;93840.38;4997068;28;20037;-78
2021/01/09 07:51:51;;;;;;;2.88;2.60;;;;;;;6.37;63.81;93835.63;4998787;28;20085;-81
2021/01/09 07:54:38;;;;;;;3.40;2.92;;;;;;;6.48;63.69;93835.41;4987367;28;20053;-81
2021/01/09 07:57:05;;;;;;;3.20;2.88;;;;;;;6.57;63.46;93842.75;5002440;28;20060;-78
2021/01/09 07:59:32;;;;;;;3.50;3.20;;;;;;;6.66;63.26;93838.53;5000853;28;20060;-78
2021/01/09 08:01:58;;;;;;;5.32;3.70;;;;;;;6.75;63.08;93826.44;5001606;28;20095;-81
2021/01/09 08:04:26;;;;;;;4.03;3.60;;;;;;;6.92;62.88;93832.22;4999644;28;20474;-80
2021/01/09 08:06:52;;;;;;;3.50;3.10;;;;;;;6.92;62.37;93819.09;5004661;28;20212;-79
2021/01/09 08:09:20;;;;;;;4.57;3.40;;;;;;;7.08;61.79;93836.41;5002791;28;20608;-80
2021/01/09 08:11:46;;;;;;;4.63;3.67;;;;;;;7.16;61.60;93843.75;5002195;28;20042;-80
2021/01/09 08:14:13;;;;;;;3.92;3.55;;;;;;;7.22;61.50;93837.44;4985636;28;20393;-82
2021/01/09 08:16:39;;;;;;;3.63;3.33;;;;;;;7.27;61.25;93831.38;5004666;28;20320;-80
2021/01/09 08:19:16;;;;;;;3.65;3.35;;;;;;;7.32;60.86;93832.16;4998589;28;20402;-80
2021/01/09 08:21:42;;;;;;;3.88;3.58;;;;;;;7.40;60.86;93833.44;4997983;28;20085;-81
2021/01/09 08:24:08;;;;;;;3.85;3.55;;;;;;;7.39;60.72;93829.22;4997633;28;20507;-78
2021/01/09 08:26:34;;;;;;;3.85;3.55;;;;;;;7.50;60.54;93832.63;4978253;28;20043;-79
2021/01/09 08:29:09;;;;;;;5.45;4.22;;;;;;;7.59;60.64;93841.53;5000232;28;20523;-81
2021/01/09 08:31:36;;;;;;;;;;;;;;;7.61;60.66;93836.81;4999503;28;20065;-81
2021/01/09 08:34:02;;;;;;;5.60;4.50;;;;;;;7.60;60.69;93835.22;5000245;28;20478;-81
2021/01/09 08:36:27;;;;;;;6.45;4.75;;;;;;;7.65;60.38;93848.34;4978122;28;20115;-81
2021/01/09 08:38:59;;;;;;;4.90;4.50;;;;;;;7.68;60.10;93858.31;4987753;28;20101;-81
2021/01/09 08:41:35;;;;;;;4.85;4.35;;;;;;;7.63;60.25;93847.81;4998057;28;20034;-82
2021/01/09 08:44:12;;;;;;;5.32;4.82;;;;;;;7.70;60.05;93859.66;5004592;28;20116;-81
2021/01/09 08:46:44;;;;;;;8.25;6.38;;;;;;;7.63;59.87;93853.09;4999044;28;20120;-81
2021/01/09 08:49:26;;;;;;;5.60;5.13;;;;;;;7.56;60.13;93852.59;4997897;28;20695;-82
2021/01/09 08:51:57;;;;;;;7.97;6.22;;;;;;;7.58;60.28;93843.38;4991046;28;20045;-80
2021/01/09 08:54:31;;;;;;;5.40;4.90;;;;;;;7.64;59.92;93842.31;5002162;28;20059;-82
2021/01/09 08:57:02;;;;;;;7.00;6.30;;;;;;;7.71;59.62;93849.91;4988664;28;20103;-82
2021/01/09 08:59:28;;;;;;;13.05;11.02;;;;;;;7.73;59.86;93842.53;5001456;28;20018;-81
2021/01/09 09:02:00;;;;;;;16.90;15.27;;;;;;;7.77;59.62;93833.81;4984190;28;20013;-82
2021/01/09 09:04:25;;;;;;;18.02;16.25;;;;;;;7.72;59.31;93822.56;4975430;28;20042;-81
2021/01/09 09:07:03;;;;;;;10.30;9.30;;;;;;;7.69;59.36;93804.66;4970185;28;20034;-81
2021/01/09 09:09:30;;;;;;;8.73;7.80;;;;;;;7.79;59.03;93831.72;4978205;28;20567;-81
2021/01/09 09:11:56;;;;;;;7.28;6.57;;;;;;;7.70;58.84;93801.78;4963229;28;20038;-81
2021/01/09 09:14:22;;;;;;;7.82;7.03;;;;;;;7.95;58.88;93827.19;4993659;28;20044;-80
2021/01/09 09:17:00;;;;;;;8.15;7.35;;;;;;;8.02;58.62;93824.25;5006806;28;20082;-81
2021/01/09 09:19:25;;;;;;;11.02;10.05;;;;;;;8.11;58.42;93809.47;5002977;28;20125;-81
2021/01/09 09:21:58;;;;;;;9.23;8.32;;;;;;;8.23;58.16;93820.44;4972808;28;20049;-82
2021/01/09 09:24:44;;;;;;;8.90;8.00;;;;;;;8.40;57.70;93812.22;4991425;28;20034;-82
2021/01/09 09:27:26;;;;;;;10.57;7.95;;;;;;;8.55;57.42;93817.38;4984704;28;20041;-82
2021/01/09 09:30:14;;;;;;;25.45;20.73;;;;;;;8.61;57.16;93821.50;4974031;28;20060;-82
2021/01/09 09:32:51;;;;;;;19.52;15.73;;;;;;;8.55;57.08;93818.13;4944828;28;20286;-82
2021/01/09 09:35:28;;;;;;;15.35;13.85;;;;;;;8.64;57.05;93828.88;4954722;28;20018;-82
2021/01/09 09:38:07;;;;;;;12.38;8.43;;;;;;;8.45;56.98;93805.06;4974147;28;20037;-81
2021/01/09 09:40:34;;;;;;;9.52;7.93;;;;;;;8.55;57.01;93817.38;4933318;28;20047;-81
2021/01/09 09:43:21;;;;;;;9.05;7.97;;;;;;;8.55;57.21;93826.03;4948091;28;20049;-81
2021/01/09 09:45:58;;;;;;;10.13;8.50;;;;;;;8.51;56.97;93821.59;4938244;28;20085;-81
2021/01/09 09:48:36;;;;;;;25.92;23.25;;;;;;;8.52;57.19;93812.63;4949865;28;20039;-81
2021/01/09 09:51:09;;;;;;;58.67;47.50;;;;;;;8.56;56.80;93814.44;4987622;28;20046;-80
2021/01/09 09:53:50;;;;;;;55.45;43.45;;;;;;;8.62;57.03;93808.06;4985245;28;20410;-81
2021/01/09 09:56:20;;;;;;;32.80;28.20;;;;;;;8.69;56.95;93795.38;5002649;28;20151;-81
2021/01/09 09:58:59;;;;;;;28.23;25.23;;;;;;;8.90;56.77;93793.34;5006815;28;20103;-79
2021/01/09 10:01:24;;;;;;;34.78;30.73;;;;;;;8.96;56.54;93794.09;5008705;28;20080;-81
2021/01/09 10:03:50;;;;;;;12.20;9.57;;;;;;;9.07;56.76;93788.44;5000368;28;20516;-81
2021/01/09 10:06:18;;;;;;;15.43;8.43;;;;;;;9.13;56.33;93786.56;5008662;28;20038;-81
2021/01/09 10:08:45;;;;;;;11.88;9.35;;;;;;;9.27;56.14;93786.66;4983437;28;20049;-81
2021/01/09 10:11:10;;;;;;;11.40;9.07;;;;;;;9.34;55.77;93784.47;5005483;28;20025;-81
2021/01/09 10:13:37;;;;;;;13.00;9.52;;;;;;;9.41;55.65;93790.19;5007996;28;20041;-79
2021/01/09 10:16:03;;;;;;;11.20;9.82;;;;;;;9.43;55.51;93780.16;4988163;28;20050;-82
2021/01/09 10:18:30;;;;;;;11.18;9.38;;;;;;;9.53;55.22;93788.72;5007197;28;20042;-80
2021/01/09 10:20:56;;;;;;;14.65;11.13;;;;;;;9.62;55.39;93796.03;5005614;28;20611;-81
2021/01/09 10:23:23;;;;;;;14.60;10.45;;;;;;;9.66;55.14;93783.84;5005609;28;20044;-82
2021/01/09 10:25:49;;;;;;;12.65;11.27;;;;;;;9.66;54.90;93789.13;4993511;28;20033;-83
2021/01/09 10:28:14;;;;;;;12.02;10.77;;;;;;;9.66;54.79;93789.13;5001521;28;20111;-83
2021/01/09 10:30:39;;;;;;;12.95;10.38;;;;;;;9.65;54.53;93795.47;5001213;28;20037;-82
2021/01/09 10:33:06;;;;;;;11.00;9.90;;;;;;;9.50;54.44;93796.44;5006280;28;20053;-79
2021/01/09 10:35:31;;;;;;;13.23;10.20;;;;;;;9.47;54.65;93791.72;5001754;28;20045;-79
2021/01/09 10:37:57;;;;;;;11.38;9.30;;;;;;;9.53;54.88;93785.31;4993522;28;20044;-83
2021/01/09 10:40:22;;;;;;;11.60;10.07;;;;;;;9.51;54.84;93782.19;5001314;28;20049;-81
2021/01/09 10:42:48;;;;;;;11.93;8.65;;;;;;;9.51;55.11;93782.97;5007538;28;20046;-83
2021/01/09 10:45:14;;;;;;;9.43;8.48;;;;;;;9.45;54.76;93778.81;5004538;28;20082;-83
2021/01/09 10:47:40;;;;;;;9.10;8.15;;;;;;;9.48;54.69;93780.09;5006160;28;20135;-84
2021/01/09 10:50:07;;;;;;;11.27;9.80;;;;;;;9.48;54.51;93780.09;5007820;28;20100;-83
2021/01/09 10:52:32;;;;;;;12.75;10.63;;;;;;;9.30;54.91;93786.09;5006298;28;20192;-82
2021/01/09 10:54:58;;;;;;;12.20;10.05;;;;;;;9.32;54.98;93786.63;5005553;28;20498;-83
2021/01/09 10:57:23;;;;;;;12.85;9.95;;;;;;;9.27;55.26;93792.72;5005411;28;20057;-83
2021/01/09 10:59:49;;;;;;;15.18;10.25;;;;;;;9.28;55.67;93801.44;5004953;28;20041;-83
2021/01/09 11:02:14;;;;;;;12.60;10.23;;;;;;;9.20;55.51;93789.63;5001666;28;20033;-82
2021/01/09 11:04:40;;;;;;;16.35;11.32;;;;;;;9.16;55.52;93775.44;5010112;28;20048;-83
2021/01/09 11:07:06;;;;;;;12.05;10.07;;;;;;;9.22;55.68;93789.34;5001861;28;20124;-82
2021/01/09 11:09:31;;;;;;;15.70;11.63;;;;;;;9.17;55.84;93789.41;5005360;28;20050;-80
2021/01/09 11:11:57;;;;;;;12.40;11.10;;;;;;;9.15;55.70;93805.50;4987182;28;20039;-80
2021/01/09 11:14:22;;;;;;;18.80;12.98;;;;;;;9.02;55.66;93806.94;4988623;28;20030;-80
2021/01/09 11:16:56;;;;;;;15.02;10.52;;;;;;;8.96;55.80;93818.59;5007820;28;20033;-80
2021/01/09 11:19:22;;;;;;;13.75;11.95;;;;;;;8.89;55.87;93818.16;5004803;28;20642;-83
2021/01/09 11:21:47;;;;;;;16.45;12.85;;;;;;;8.83;55.96;93813.19;5003759;28;20069;-82
2021/01/09 11:24:13;;;;;;;16.38;12.88;;;;;;;8.69;56.43;93805.13;4992465;28;20042;-81
2021/01/09 11:26:38;;;;;;;13.70;12.02;;;;;;;8.39;57.08;93792.19;4989786;28;20353;-81
2021/01/09 11:29:04;;;;;;;13.35;11.52;;;;;;;8.50;57.09;93801.59;5007775;28;20168;-83
2021/01/09 11:31:29;;;;;;;10.73;9.63;;;;;;;8.45;57.18;93786.63;4986249;28;20431;-82
2021/01/09 11:33:55;;;;;;;10.43;9.27;;;;;;;8.59;56.91;93794.69;4989182;28;20518;-80
2021/01/09 11:36:21;;;;;;;12.38;9.95;;;;;;;8.59;56.67;93792.84;4996065;28;20054;-83
2021/01/09 11:38:47;;;;;;;13.23;10.65;;;;;;;8.59;56.69;93776.25;4998713;28;20087;-81
2021/01/09 11:41:13;;;;;;;12.13;10.07;;;;;;;8.65;56.98;93775.13;4987876;28;20108;-83
2021/01/09 11:43:41;;;;;;;11.75;10.00;;;;;;;8.76;56.68;93776.59;5002308;28;20164;-81
2021/01/09 11:46:07;;;;;;;12.18;10.23;;;;;;;8.85;56.57;93788.13;5000011;28;20115;-83